createdAt,value
2019-04-07T00:00:18.466Z,20.3
2019-04-07T00:01:08.350Z,20.3
2019-04-07T00:01:55.994Z,20.3
2019-04-07T00:02:46.352Z,20.4
2019-04-07T00:03:37.861Z,20.4
2019-04-07T00:04:25.900Z,20.4
2019-04-07T00:05:29.945Z,20.4
2019-04-07T00:06:05.533Z,20.4
2019-04-07T00:06:58.745Z,20.4
2019-04-07T00:07:48.813Z,20.3
2019-04-07T00:08:39.152Z,20.3
2019-04-07T00:09:27.572Z,20.3
2019-04-07T00:10:16.013Z,20.3
2019-04-07T00:11:06.703Z,20.3
2019-04-07T00:11:58.172Z,20.3
2019-04-07T00:12:45.188Z,20.2
2019-04-07T00:13:35.625Z,20.2
2019-04-07T00:14:24.823Z,20.2
2019-04-07T00:15:18.777Z,20.1
2019-04-07T00:16:07.647Z,20.1
2019-04-07T00:16:56.879Z,20.1
2019-04-07T00:17:47.603Z,20.1
2019-04-07T00:18:36.242Z,20.1
2019-04-07T00:19:27.170Z,20
2019-04-07T00:20:17.579Z,20
2019-04-07T00:21:08.651Z,19.9
2019-04-07T00:21:57.224Z,19.9
2019-04-07T00:22:45.809Z,19.9
2019-04-07T00:23:36.914Z,19.9
2019-04-07T00:24:25.832Z,19.9
2019-04-07T00:25:15.414Z,19.8
2019-04-07T00:26:07.547Z,19.8
2019-04-07T00:26:56.159Z,19.8
2019-04-07T00:27:46.635Z,19.8
2019-04-07T00:28:35.296Z,19.8
2019-04-07T00:29:27.656Z,19.8
2019-04-07T00:30:16.890Z,19.7
2019-04-07T00:31:07.086Z,19.7
2019-04-07T00:31:56.282Z,19.6
2019-04-07T00:32:46.648Z,19.6
2019-04-07T00:33:37.734Z,19.6
2019-04-07T00:34:29.854Z,19.6
2019-04-07T00:35:40.104Z,19.6
2019-04-07T00:36:11.178Z,19.5
2019-04-07T00:36:58.811Z,19.5
2019-04-07T00:37:49.676Z,19.4
2019-04-07T00:38:40.574Z,19.4
2019-04-07T00:39:29.778Z,19.4
2019-04-07T00:40:22.863Z,19.5
2019-04-07T00:41:12.568Z,19.6
2019-04-07T00:42:00.411Z,19.7
2019-04-07T00:42:50.375Z,19.8
2019-04-07T00:43:41.637Z,19.8
2019-04-07T00:44:33.265Z,19.9
2019-04-07T00:45:22.058Z,19.9
2019-04-07T00:46:12.440Z,20.1
2019-04-07T00:47:01.425Z,20.1
2019-04-07T00:47:53.664Z,20.2
2019-04-07T00:48:39.551Z,20.3
2019-04-07T00:49:30.310Z,20.3
2019-04-07T00:50:22.941Z,20.2
2019-04-07T00:51:10.443Z,20.1
2019-04-07T00:52:01.742Z,20
2019-04-07T00:52:53.544Z,19.9
2019-04-07T00:53:42.243Z,19.9
2019-04-07T00:54:32.617Z,20
2019-04-07T00:55:22.070Z,20
2019-04-07T00:56:11.584Z,20.1
2019-04-07T00:57:00.970Z,20.1
2019-04-07T00:57:51.735Z,20.1
2019-04-07T00:58:42.217Z,20.1
2019-04-07T00:59:33.394Z,20.1
2019-04-07T01:00:24.947Z,20.1
2019-04-07T01:01:12.660Z,20.1
2019-04-07T01:02:03.037Z,20.2
2019-04-07T01:02:54.051Z,20.2
2019-04-07T01:03:43.026Z,20.1
2019-04-07T01:04:32.849Z,20.1
2019-04-07T01:05:33.482Z,20.1
2019-04-07T01:06:11.469Z,20.1
2019-04-07T01:07:01.669Z,20.1
2019-04-07T01:07:52.577Z,20.1
2019-04-07T01:08:43.675Z,20
2019-04-07T01:09:34.096Z,20
2019-04-07T01:10:24.209Z,19.9
2019-04-07T01:11:11.309Z,19.9
2019-04-07T01:12:02.886Z,19.9
2019-04-07T01:12:53.333Z,19.9
2019-04-07T01:13:43.721Z,19.9
2019-04-07T01:14:31.426Z,19.9
2019-04-07T01:15:21.423Z,19.8
2019-04-07T01:16:11.044Z,19.8
2019-04-07T01:17:02.542Z,19.8
2019-04-07T01:17:52.361Z,19.8
2019-04-07T01:18:44.221Z,19.8
2019-04-07T01:19:34.659Z,19.8
2019-04-07T01:20:24.814Z,19.7
2019-04-07T01:21:11.088Z,19.7
2019-04-07T01:22:03.182Z,19.6
2019-04-07T01:22:54.402Z,19.6
2019-04-07T01:23:43.563Z,19.6
2019-04-07T01:24:35.231Z,19.6
2019-04-07T01:25:24.173Z,19.5
2019-04-07T01:26:11.745Z,19.5
2019-04-07T01:27:01.722Z,19.5
2019-04-07T01:27:52.873Z,19.4
2019-04-07T01:28:41.716Z,19.4
2019-04-07T01:29:34.167Z,19.4
2019-04-07T01:30:25.143Z,19.4
2019-04-07T01:31:13.239Z,19.4
2019-04-07T01:32:02.438Z,19.3
2019-04-07T01:32:50.984Z,19.3
2019-04-07T01:33:44.258Z,19.3
2019-04-07T01:34:34.049Z,19.3
2019-04-07T01:35:26.671Z,19.4
2019-04-07T01:36:14.322Z,19.5
2019-04-07T01:37:04.440Z,19.6
2019-04-07T01:37:54.972Z,19.6
2019-04-07T01:38:44.338Z,19.7
2019-04-07T01:39:34.861Z,19.8
2019-04-07T01:40:25.640Z,19.8
2019-04-07T01:41:14.427Z,19.9
2019-04-07T01:42:04.954Z,20
2019-04-07T01:42:55.240Z,20.1
2019-04-07T01:43:44.925Z,20.1
2019-04-07T01:44:36.057Z,20.2
2019-04-07T01:45:25.696Z,20.1
2019-04-07T01:46:14.193Z,19.9
2019-04-07T01:47:03.469Z,19.8
2019-04-07T01:47:55.437Z,19.8
2019-04-07T01:48:43.875Z,19.8
2019-04-07T01:49:32.977Z,19.9
2019-04-07T01:50:25.244Z,19.9
2019-04-07T01:51:12.675Z,19.9
2019-04-07T01:52:04.164Z,19.9
2019-04-07T01:52:55.045Z,19.9
2019-04-07T01:53:43.431Z,19.9
2019-04-07T01:54:36.066Z,19.9
2019-04-07T01:55:24.594Z,19.9
2019-04-07T01:56:16.170Z,19.9
2019-04-07T01:57:05.745Z,19.9
2019-04-07T01:57:57.534Z,19.9
2019-04-07T01:58:46.025Z,19.9
2019-04-07T01:59:35.497Z,19.9
2019-04-07T02:00:25.789Z,19.9
2019-04-07T02:01:17.360Z,19.9
2019-04-07T02:02:07.145Z,19.9
2019-04-07T02:02:56.715Z,19.8
2019-04-07T02:03:48.359Z,19.8
2019-04-07T02:04:36.706Z,19.8
2019-04-07T02:05:26.991Z,19.8
2019-04-07T02:06:17.764Z,19.8
2019-04-07T02:07:07.302Z,19.8
2019-04-07T02:07:57.091Z,19.8
2019-04-07T02:08:47.456Z,19.8
2019-04-07T02:09:39.334Z,19.8
2019-04-07T02:10:28.952Z,19.7
2019-04-07T02:11:17.801Z,19.7
2019-04-07T02:12:07.379Z,19.6
2019-04-07T02:12:58.853Z,19.6
2019-04-07T02:13:48.233Z,19.6
2019-04-07T02:14:36.724Z,19.5
2019-04-07T02:15:29.839Z,19.5
2019-04-07T02:16:17.121Z,19.5
2019-04-07T02:17:08.491Z,19.4
2019-04-07T02:17:58.168Z,19.4
2019-04-07T02:18:48.618Z,19.4
2019-04-07T02:19:38.568Z,19.4
2019-04-07T02:20:28.903Z,19.4
2019-04-07T02:21:18.603Z,19.3
2019-04-07T02:22:08.467Z,19.3
2019-04-07T02:22:58.330Z,19.3
2019-04-07T02:23:48.194Z,19.3
2019-04-07T02:24:41.037Z,19.3
2019-04-07T02:25:29.996Z,19.3
2019-04-07T02:26:19.462Z,19.2
2019-04-07T02:27:07.622Z,19.2
2019-04-07T02:27:58.898Z,19.1
2019-04-07T02:28:47.256Z,19.1
2019-04-07T02:29:40.989Z,19.2
2019-04-07T02:30:29.591Z,19.3
2019-04-07T02:31:19.460Z,19.4
2019-04-07T02:32:12.010Z,19.4
2019-04-07T02:33:03.771Z,19.5
2019-04-07T02:33:49.734Z,19.5
2019-04-07T02:34:38.997Z,19.6
2019-04-07T02:35:32.446Z,19.7
2019-04-07T02:36:48.359Z,19.8
2019-04-07T02:37:12.453Z,19.9
2019-04-07T02:37:59.552Z,20
2019-04-07T02:38:50.452Z,20.1
2019-04-07T02:39:43.800Z,20.2
2019-04-07T02:40:31.867Z,20.1
2019-04-07T02:41:22.137Z,20
2019-04-07T02:42:09.298Z,19.9
2019-04-07T02:43:03.085Z,19.8
2019-04-07T02:43:48.744Z,19.8
2019-04-07T02:44:41.481Z,19.9
2019-04-07T02:45:31.159Z,19.9
2019-04-07T02:46:21.785Z,19.9
2019-04-07T02:47:09.838Z,19.9
2019-04-07T02:48:01.129Z,19.9
2019-04-07T02:48:49.477Z,19.9
2019-04-07T02:49:43.012Z,19.9
2019-04-07T02:50:31.598Z,19.9
2019-04-07T02:51:20.098Z,19.9
2019-04-07T02:52:11.613Z,19.9
2019-04-07T02:53:05.668Z,19.9
2019-04-07T02:53:53.671Z,19.9
2019-04-07T02:54:40.235Z,19.9
2019-04-07T02:55:31.162Z,19.9
2019-04-07T02:56:22.518Z,19.9
2019-04-07T02:57:11.157Z,19.9
2019-04-07T02:58:00.276Z,19.8
2019-04-07T02:58:51.434Z,19.8
2019-04-07T02:59:49.069Z,19.8
2019-04-07T03:00:33.165Z,19.8
2019-04-07T03:01:22.536Z,19.7
2019-04-07T03:02:13.036Z,19.7
2019-04-07T03:03:03.274Z,19.6
2019-04-07T03:03:53.153Z,19.6
2019-04-07T03:07:36.973Z,19.5
2019-04-07T03:08:27.554Z,19.5
2019-04-07T03:09:18.695Z,19.5
2019-04-07T03:10:05.796Z,19.5
2019-04-07T03:10:42.691Z,19.4
2019-04-07T03:11:37.264Z,19.4
2019-04-07T03:12:23.649Z,19.4
2019-04-07T03:13:14.647Z,19.4
2019-04-07T03:14:03.630Z,19.3
2019-04-07T03:14:54.854Z,19.3
2019-04-07T03:15:42.402Z,19.3
2019-04-07T03:16:33.844Z,19.3
2019-04-07T03:17:22.163Z,19.2
2019-04-07T03:18:15.190Z,19.2
2019-04-07T03:19:03.358Z,19.2
2019-04-07T03:19:52.726Z,19.1
2019-04-07T03:20:45.361Z,19.1
2019-04-07T03:21:33.016Z,19.1
2019-04-07T03:22:25.701Z,19.1
2019-04-07T03:23:16.206Z,19.1
2019-04-07T03:24:04.921Z,19.1
2019-04-07T03:24:53.682Z,19.1
2019-04-07T03:25:46.491Z,19.3
2019-04-07T03:26:35.147Z,19.4
2019-04-07T03:27:22.823Z,19.4
2019-04-07T03:28:17.325Z,19.5
2019-04-07T03:29:05.616Z,19.5
2019-04-07T03:30:27.531Z,19.6
2019-04-07T03:31:26.850Z,19.8
2019-04-07T03:32:32.949Z,19.8
2019-04-07T03:34:00.802Z,19.9
2019-04-07T03:35:00.952Z,20
2019-04-07T03:36:29.296Z,19.9
2019-04-07T03:38:02.538Z,19.7
2019-04-07T03:38:23.714Z,19.7
2019-04-07T03:39:11.988Z,19.7
2019-04-07T03:40:16.647Z,19.8
2019-04-07T03:41:05.300Z,19.8
2019-04-07T03:41:57.510Z,19.8
2019-04-07T03:42:27.977Z,19.8
2019-04-07T03:43:21.719Z,19.8
2019-04-07T03:44:15.817Z,19.8
2019-04-07T03:45:01.240Z,19.8
2019-04-07T03:45:49.813Z,19.8
2019-04-07T03:46:43.876Z,19.8
2019-04-07T03:47:32.445Z,19.8
2019-04-07T03:48:25.052Z,19.8
2019-04-07T03:49:11.831Z,19.8
2019-04-07T03:50:01.480Z,19.7
2019-04-07T03:51:04.697Z,19.7
2019-04-07T03:51:42.471Z,19.6
2019-04-07T03:52:36.031Z,19.6
2019-04-07T03:53:20.680Z,19.6
2019-04-07T03:54:12.684Z,19.6
2019-04-07T03:55:02.176Z,19.6
2019-04-07T03:56:08.696Z,19.6
2019-04-07T03:56:43.501Z,19.6
2019-04-07T03:57:29.945Z,19.6
2019-04-07T03:58:24.528Z,19.6
2019-04-07T03:59:12.913Z,19.5
2019-04-07T04:00:04.598Z,19.5
2019-04-07T04:00:53.876Z,19.5
2019-04-07T04:01:45.930Z,19.4
2019-04-07T04:02:34.939Z,19.4
2019-04-07T04:03:24.497Z,19.4
2019-04-07T04:04:12.367Z,19.4
2019-04-07T04:05:03.508Z,19.4
2019-04-07T04:05:59.632Z,19.3
2019-04-07T04:06:43.558Z,19.3
2019-04-07T04:07:54.584Z,19.3
2019-04-07T04:08:22.285Z,19.3
2019-04-07T04:09:13.870Z,19.2
2019-04-07T04:10:04.011Z,19.1
2019-04-07T04:10:54.387Z,19.2
2019-04-07T04:11:45.162Z,19.1
2019-04-07T04:12:34.004Z,19.1
2019-04-07T04:13:24.838Z,19.1
2019-04-07T04:14:13.833Z,19.1
2019-04-07T04:15:07.333Z,19.1
2019-04-07T04:15:54.208Z,19
2019-04-07T04:16:42.891Z,19
2019-04-07T04:17:35.706Z,18.9
2019-04-07T04:18:24.470Z,19
2019-04-07T04:19:17.227Z,19.1
2019-04-07T04:20:02.316Z,19.1
2019-04-07T04:20:52.818Z,19.2
2019-04-07T04:21:46.544Z,19.3
2019-04-07T04:22:36.474Z,19.4
2019-04-07T04:23:26.323Z,19.4
2019-04-07T04:24:17.077Z,19.4
2019-04-07T04:25:06.489Z,19.6
2019-04-07T04:25:56.701Z,19.6
2019-04-07T04:26:44.586Z,19.7
2019-04-07T04:27:36.754Z,19.8
2019-04-07T04:28:25.262Z,19.8
2019-04-07T04:29:17.031Z,19.9
2019-04-07T04:30:13.419Z,19.8
2019-04-07T04:30:58.384Z,19.7
2019-04-07T04:31:45.819Z,19.6
2019-04-07T04:32:35.286Z,19.6
2019-04-07T04:33:23.360Z,19.5
2019-04-07T04:34:17.207Z,19.6
2019-04-07T04:35:07.125Z,19.6
2019-04-07T04:35:55.888Z,19.6
2019-04-07T04:37:02.964Z,19.6
2019-04-07T04:38:08.971Z,19.6
2019-04-07T04:38:27.313Z,19.6
2019-04-07T04:39:25.907Z,19.6
2019-04-07T04:40:09.224Z,19.6
2019-04-07T04:40:56.904Z,19.6
2019-04-07T04:41:49.634Z,19.6
2019-04-07T04:42:40.775Z,19.6
2019-04-07T04:43:27.538Z,19.6
2019-04-07T04:44:16.713Z,19.6
2019-04-07T04:45:10.865Z,19.6
2019-04-07T04:45:58.790Z,19.6
2019-04-07T04:46:49.185Z,19.6
2019-04-07T04:47:35.974Z,19.6
2019-04-07T04:48:27.658Z,19.6
2019-04-07T04:49:19.007Z,19.6
2019-04-07T04:50:10.386Z,19.6
2019-04-07T04:50:56.559Z,19.5
2019-04-07T04:51:54.667Z,19.5
2019-04-07T04:52:34.239Z,19.4
2019-04-07T04:53:25.644Z,19.4
2019-04-07T04:54:17.718Z,19.4
2019-04-07T04:55:05.690Z,19.3
2019-04-07T04:55:56.622Z,19.3
2019-04-07T04:56:47.869Z,19.3
2019-04-07T06:05:26.506Z,18.9
2019-04-07T06:06:14.769Z,18.8
2019-04-07T06:07:11.440Z,18.9
2019-04-07T06:07:53.690Z,19.1
2019-04-07T06:09:01.335Z,19.1
2019-04-07T06:09:42.586Z,19.2
2019-04-07T06:10:32.071Z,19.3
2019-04-07T06:11:17.993Z,19.3
2019-04-07T06:12:10.709Z,19.4
2019-04-07T06:13:00.529Z,19.4
2019-04-07T06:13:50.927Z,19.5
2019-04-07T06:14:33.480Z,19.6
2019-04-07T06:15:30.280Z,19.7
2019-04-07T06:16:12.087Z,19.8
2019-04-07T06:17:08.310Z,19.8
2019-04-07T06:18:03.102Z,19.7
2019-04-07T06:18:48.743Z,19.6
2019-04-07T06:19:30.325Z,19.4
2019-04-07T06:20:28.987Z,19.4
2019-04-07T06:21:18.827Z,19.4
2019-04-07T06:22:01.348Z,19.5
2019-04-07T06:23:03.879Z,19.6
2019-04-07T06:23:45.862Z,19.6
2019-04-07T06:24:44.008Z,19.6
2019-04-07T06:25:25.594Z,19.6
2019-04-07T06:26:22.783Z,19.6
2019-04-07T06:27:04.374Z,19.6
2019-04-07T06:28:00.398Z,19.6
2019-04-07T06:28:43.609Z,19.6
2019-04-07T06:29:39.887Z,19.6
2019-04-07T06:30:24.276Z,19.6
2019-04-07T06:31:17.307Z,19.6
2019-04-07T06:32:15.376Z,19.6
2019-04-07T06:32:58.064Z,19.6
2019-04-07T06:33:51.279Z,19.6
2019-04-07T06:34:34.286Z,19.6
2019-04-07T06:35:28.833Z,19.6
2019-04-07T06:36:22.199Z,19.5
2019-04-07T06:37:11.395Z,19.5
2019-04-07T06:37:57.710Z,19.4
2019-04-07T06:39:06.191Z,19.4
2019-04-07T06:39:39.544Z,19.4
2019-04-07T06:40:32.178Z,19.4
2019-04-07T06:41:18.400Z,19.3
2019-04-07T06:42:09.519Z,19.3
2019-04-07T06:42:58.856Z,19.3
2019-04-07T06:43:49.597Z,19.3
2019-04-07T06:44:37.711Z,19.3
2019-04-07T06:45:30.367Z,19.2
2019-04-07T06:46:14.895Z,19.2
2019-04-07T06:47:11.841Z,19.2
2019-04-07T06:47:53.408Z,19.2
2019-04-07T06:48:51.427Z,19.2
2019-04-07T06:49:46.230Z,19.1
2019-04-07T06:50:29.983Z,19.1
2019-04-07T06:51:17.285Z,19.1
2019-04-07T06:52:14.937Z,19.1
2019-04-07T06:52:55.653Z,19.1
2019-04-07T06:53:50.401Z,19
2019-04-07T06:54:38.140Z,19
2019-04-07T06:55:36.243Z,18.9
2019-04-07T06:56:19.693Z,18.9
2019-04-07T06:57:12.783Z,18.9
2019-04-07T06:57:55.770Z,18.9
2019-04-07T06:58:55.673Z,18.8
2019-04-07T06:59:34.960Z,18.8
2019-04-07T07:00:32.127Z,18.8
2019-04-07T07:01:18.055Z,18.8
2019-04-07T07:05:41.057Z,18.6
2019-04-07T07:06:20.865Z,18.5
2019-04-07T07:07:26.100Z,18.5
2019-04-07T07:08:05.162Z,18.4
2019-04-07T07:09:09.272Z,18.4
2019-04-07T07:09:44.994Z,18.4
2019-04-07T07:10:58.396Z,18.4
2019-04-07T07:11:51.619Z,18.3
2019-04-07T07:12:42.399Z,18.3
2019-04-07T07:13:45.422Z,18.3
2019-04-07T07:14:04.932Z,18.2
2019-04-07T07:15:09.134Z,18.2
2019-04-07T07:15:51.825Z,18.3
2019-04-07T07:16:34.978Z,18.3
2019-04-07T07:17:31.104Z,18.4
2019-04-07T07:18:33.836Z,18.4
2019-04-07T07:19:13.204Z,18.5
2019-04-07T07:20:13.963Z,18.5
2019-04-07T07:20:47.710Z,18.6
2019-04-07T07:21:45.496Z,18.6
2019-04-07T07:22:32.120Z,18.8
2019-04-07T07:23:29.120Z,18.8
2019-04-07T07:27:27.358Z,18.8
2019-04-07T07:28:21.676Z,18.8
2019-04-07T07:29:28.800Z,18.8
2019-04-07T07:30:06.558Z,18.8
2019-04-07T07:30:45.265Z,18.8
2019-04-07T10:06:23.801Z,17.8
2019-04-07T10:07:17.145Z,17.8
2019-04-07T10:08:05.461Z,17.8
2019-04-07T10:08:52.407Z,17.8
2019-04-07T10:09:41.664Z,17.8
2019-04-07T10:10:34.859Z,17.8
2019-04-07T10:11:22.566Z,17.8
2019-04-07T10:12:11.196Z,17.8
2019-04-07T10:13:03.642Z,17.8
2019-04-07T10:13:53.608Z,17.8
2019-04-07T10:14:43.946Z,17.7
2019-04-07T10:15:30.585Z,17.7
2019-04-07T10:16:27.003Z,17.7
2019-04-07T10:17:12.837Z,17.7
2019-04-07T10:18:02.508Z,17.7
2019-04-07T10:18:49.703Z,17.7
2019-04-07T10:19:42.620Z,17.6
2019-04-07T10:20:38.407Z,17.6
2019-04-07T10:21:22.231Z,17.6
2019-04-07T10:22:16.163Z,17.6
2019-04-07T10:23:03.557Z,17.6
2019-04-07T10:23:56.343Z,17.6
2019-04-07T10:24:43.211Z,17.6
2019-04-07T10:25:37.206Z,17.6
2019-04-07T10:26:22.466Z,17.6
2019-04-07T10:27:13.500Z,17.5
2019-04-07T10:28:02.863Z,17.5
2019-04-07T10:29:01.773Z,17.5
2019-04-07T10:29:42.791Z,17.5
2019-04-07T10:30:33.585Z,17.5
2019-04-07T10:31:26.144Z,17.4
2019-04-07T10:32:14.897Z,17.5
2019-04-07T10:33:05.052Z,17.4
2019-04-07T10:33:54.877Z,17.4
2019-04-07T10:34:42.833Z,17.4
2019-04-07T10:35:33.490Z,17.4
2019-04-07T10:36:25.268Z,17.4
2019-04-07T10:37:19.799Z,17.4
2019-04-07T10:38:07.772Z,17.4
2019-04-07T10:38:55.303Z,17.4
2019-04-07T10:39:44.274Z,17.4
2019-04-07T10:40:38.905Z,17.4
2019-04-07T10:41:25.211Z,17.4
2019-04-07T10:42:15.753Z,17.4
2019-04-07T10:43:09.555Z,17.3
2019-04-07T10:43:55.774Z,17.4
2019-04-07T10:44:44.842Z,17.3
2019-04-07T10:45:32.921Z,17.3
2019-04-07T10:46:27.096Z,17.4
2019-04-07T10:47:14.516Z,17.3
2019-04-07T10:48:06.971Z,17.3
2019-04-07T10:48:56.776Z,17.3
2019-04-07T10:50:05.463Z,17.3
2019-04-07T10:50:38.899Z,17.3
2019-04-07T10:51:25.834Z,17.3
2019-04-07T10:52:15.744Z,17.3
2019-04-07T10:53:06.843Z,17.3
2019-04-07T10:53:57.254Z,17.3
2019-04-07T10:54:45.817Z,17.3
2019-04-07T10:55:36.240Z,17.3
2019-04-07T10:56:25.475Z,17.3
2019-04-07T10:57:16.604Z,17.3
2019-04-07T10:58:08.237Z,17.3
2019-04-07T10:58:58.221Z,17.3
2019-04-07T10:59:43.216Z,17.3
2019-04-07T11:00:34.881Z,17.3
2019-04-07T11:01:27.221Z,17.3
2019-04-07T11:02:18.065Z,17.3
2019-04-07T11:03:14.145Z,17.2
2019-04-07T11:03:58.339Z,17.2
2019-04-07T11:04:46.165Z,17.2
2019-04-07T11:05:37.177Z,17.2
2019-04-07T11:06:31.587Z,17.2
2019-04-07T11:07:21.629Z,17.2
2019-04-07T11:08:07.681Z,17.2
2019-04-07T11:08:57.687Z,17.2
2019-04-07T11:09:47.336Z,17.2
2019-04-07T11:10:55.473Z,17.2
2019-04-07T11:11:28.158Z,17.1
2019-04-07T11:12:16.655Z,17.2
2019-04-07T11:13:12.662Z,17.2
2019-04-07T11:13:56.842Z,17.1
2019-04-07T11:14:48.077Z,17.1
2019-04-07T11:15:38.070Z,17.1
2019-04-07T11:16:25.253Z,17.1
2019-04-07T11:17:19.308Z,17.1
2019-04-07T11:18:08.732Z,17.1
2019-04-07T11:18:59.110Z,17.1
2019-04-07T11:19:50.320Z,17.1
2019-04-07T11:20:36.435Z,17.1
2019-04-07T11:21:28.730Z,17.1
2019-04-07T11:22:17.273Z,17.1
2019-04-07T11:23:08.476Z,17.1
2019-04-07T11:23:56.626Z,17.1
2019-04-07T11:24:49.257Z,17.1
2019-04-07T11:25:39.481Z,17.1
2019-04-07T11:26:28.467Z,17.1
2019-04-07T11:27:20.114Z,17.1
2019-04-07T11:28:09.552Z,17.1
2019-04-07T11:28:58.262Z,17.1
2019-04-07T11:29:54.958Z,17.1
2019-04-07T11:30:38.550Z,17.1
2019-04-07T11:31:29.725Z,17.1
2019-04-07T11:33:08.584Z,17.1
2019-04-07T11:33:57.742Z,17.1
2019-04-07T11:34:45.406Z,17.1
2019-04-07T11:39:00.487Z,17.1
2019-04-07T11:49:02.367Z,16.9
2019-04-07T11:49:58.175Z,16.9
2019-04-07T11:50:40.705Z,16.9
2019-04-07T11:51:32.439Z,16.9
2019-04-07T11:52:20.192Z,16.9
2019-04-07T11:53:11.611Z,16.9
2019-04-07T11:53:58.827Z,16.9
2019-04-07T11:54:52.993Z,16.9
2019-04-07T11:55:44.252Z,16.9
2019-04-07T11:56:31.231Z,16.9
2019-04-07T11:57:21.504Z,16.9
2019-04-07T11:58:50.338Z,16.9
2019-04-07T11:59:11.558Z,16.9
2019-04-07T11:59:58.598Z,16.9
2019-04-07T12:00:55.875Z,16.9
2019-04-07T12:01:41.862Z,16.9
2019-04-07T12:02:36.284Z,16.9
2019-04-07T12:03:27.899Z,16.9
2019-04-07T12:06:35.308Z,16.9
2019-04-07T12:07:13.259Z,16.9
2019-04-07T12:08:13.012Z,16.9
2019-04-07T12:08:55.695Z,16.9
2019-04-07T12:09:43.532Z,16.9
2019-04-07T12:10:33.125Z,16.9
2019-04-07T12:11:26.080Z,16.9
2019-04-07T12:12:14.662Z,16.9
2019-04-07T12:13:03.623Z,16.8
2019-04-07T12:13:59.741Z,16.8
2019-04-07T12:14:45.421Z,16.8
2019-04-07T12:15:45.168Z,16.8
2019-04-07T12:16:29.476Z,16.8
2019-04-07T12:17:26.601Z,16.8
2019-04-07T12:18:03.481Z,16.8
2019-04-07T12:19:44.780Z,16.8
2019-04-07T12:20:45.077Z,16.8
2019-04-07T12:21:45.561Z,16.8
2019-04-07T12:22:23.806Z,16.8
2019-04-07T12:23:06.407Z,16.8
2019-04-07T12:24:03.241Z,16.8
2019-04-07T12:25:07.892Z,16.8
2019-04-07T12:25:42.860Z,16.8
2019-04-07T12:26:24.760Z,16.8
2019-04-07T12:27:27.541Z,16.8
2019-04-07T12:28:04.391Z,16.8
2019-04-07T12:29:01.542Z,16.8
2019-04-07T12:29:42.862Z,16.8
2019-04-07T12:30:37.975Z,16.8
2019-04-07T12:31:24.942Z,16.7
2019-04-07T12:32:13.135Z,16.7
2019-04-07T12:33:11.444Z,16.7
2019-04-07T12:33:55.604Z,16.7
2019-04-07T12:34:51.645Z,16.7
2019-04-07T12:35:39.721Z,16.8
2019-04-07T12:36:36.422Z,16.7
2019-04-07T12:37:24.296Z,16.7
2019-04-07T12:38:16.546Z,16.7
2019-04-07T12:38:59.757Z,16.7
2019-04-07T12:39:56.032Z,16.7
2019-04-07T12:40:40.889Z,16.7
2019-04-07T12:41:45.267Z,16.7
2019-04-07T12:42:23.908Z,16.7
2019-04-07T12:43:19.668Z,16.7
2019-04-07T12:44:06.553Z,16.7
2019-04-07T12:44:46.346Z,16.7
2019-04-07T12:45:39.944Z,16.7
2019-04-07T12:46:25.836Z,16.7
2019-04-07T12:47:16.037Z,16.7
2019-04-07T12:48:06.957Z,16.7
2019-04-07T12:48:56.486Z,16.7
2019-04-07T12:49:59.472Z,16.7
2019-04-07T12:50:35.466Z,16.7
2019-04-07T12:51:30.772Z,16.7
2019-04-07T12:52:16.304Z,16.7
2019-04-07T12:53:32.048Z,16.6
2019-04-07T12:54:00.780Z,16.6
2019-04-07T12:54:54.490Z,16.6
2019-04-07T12:55:37.544Z,16.7
2019-04-07T12:56:34.625Z,16.6
2019-04-07T12:57:22.993Z,16.6
2019-04-07T12:58:14.846Z,16.6
2019-04-07T12:59:04.634Z,16.6
2019-04-07T12:59:55.111Z,16.6
2019-04-07T13:01:28.166Z,16.6
2019-04-07T13:01:56.377Z,16.6
2019-04-07T13:02:36.832Z,16.6
2019-04-07T13:03:27.755Z,16.6
2019-04-07T13:04:34.208Z,16.6
2019-04-07T13:05:15.194Z,16.6
2019-04-07T13:05:56.264Z,16.6
2019-04-07T13:06:55.585Z,16.6
2019-04-07T13:07:41.501Z,16.6
2019-04-07T13:08:35.426Z,16.6
2019-04-07T13:09:16.629Z,16.6
2019-04-07T13:10:14.856Z,16.6
2019-04-07T13:10:57.276Z,16.6
2019-04-07T13:12:08.178Z,16.6
2019-04-07T13:12:43.288Z,16.6
2019-04-07T13:13:37.965Z,16.6
2019-04-07T13:14:29.603Z,16.6
2019-04-07T13:15:08.524Z,16.6
2019-04-07T13:16:06.059Z,16.6
2019-04-07T13:16:46.908Z,16.6
2019-04-07T13:17:45.996Z,16.6
2019-04-07T13:18:31.271Z,16.6
2019-04-07T13:19:29.654Z,16.6
2019-04-07T13:20:09.736Z,16.6
2019-04-07T13:21:03.293Z,16.6
2019-04-07T13:21:51.866Z,16.6
2019-04-07T13:22:43.386Z,16.6
2019-04-07T13:23:27.631Z,16.6
2019-04-07T13:25:06.418Z,16.6
2019-04-07T13:25:33.410Z,16.6
2019-04-07T13:26:16.451Z,16.6
2019-04-07T13:27:12.305Z,16.6
2019-04-07T13:27:55.788Z,16.6
2019-04-07T13:28:45.585Z,16.6
2019-04-07T13:29:34.483Z,16.6
2019-04-07T13:30:24.573Z,16.6
2019-04-07T13:31:14.548Z,16.6
2019-04-07T13:32:09.853Z,16.6
2019-04-07T13:33:13.813Z,16.6
2019-04-07T13:33:46.791Z,16.6
2019-04-07T13:34:44.370Z,16.6
2019-04-07T13:35:17.718Z,16.6
2019-04-07T13:36:15.993Z,16.6
2019-04-07T13:37:09.672Z,16.6
2019-04-07T13:37:58.977Z,16.6
2019-04-07T13:38:46.380Z,16.6
2019-04-07T13:39:47.501Z,16.6
2019-04-07T13:40:29.332Z,16.6
2019-04-07T13:41:21.470Z,16.6
2019-04-07T13:42:11.870Z,16.6
2019-04-07T13:43:08.387Z,16.6
2019-04-07T13:43:51.682Z,16.6
2019-04-07T13:44:41.639Z,16.6
2019-04-07T13:45:31.207Z,16.6
2019-04-07T13:46:46.869Z,16.6
2019-04-07T13:47:11.741Z,16.6
2019-04-07T13:48:00.309Z,16.6
2019-04-07T13:48:51.055Z,16.6
2019-04-07T13:49:46.878Z,16.6
2019-04-07T13:50:33.235Z,16.6
2019-04-07T13:51:15.939Z,16.6
2019-04-07T13:51:58.872Z,16.6
2019-04-07T13:53:10.974Z,16.6
2019-04-07T13:54:10.873Z,16.6
2019-04-07T13:54:43.603Z,16.6
2019-04-07T13:55:27.325Z,16.6
2019-04-07T13:56:22.588Z,16.6
2019-04-07T13:57:06.593Z,16.6
2019-04-07T13:58:03.006Z,16.6
2019-04-07T13:58:49.842Z,16.6
2019-04-07T13:59:39.157Z,16.6
2019-04-07T14:00:32.750Z,16.6
2019-04-07T14:01:23.326Z,16.6
2019-04-07T14:02:24.747Z,16.6
2019-04-07T14:02:55.975Z,16.6
2019-04-07T14:03:48.169Z,16.6
2019-04-07T14:07:29.526Z,16.6
2019-04-07T14:08:12.844Z,16.6
2019-04-07T14:09:07.281Z,16.6
2019-04-07T14:09:52.834Z,16.6
2019-04-07T14:10:50.408Z,16.6
2019-04-07T14:11:32.779Z,16.6
2019-04-07T14:12:34.547Z,16.6
2019-04-07T14:13:22.126Z,16.6
2019-04-07T14:14:02.809Z,16.6
2019-04-07T14:14:53.770Z,16.6
2019-04-07T16:07:30.582Z,16.4
2019-04-07T16:08:16.611Z,16.4
2019-04-07T16:10:02.417Z,16.4
2019-04-07T16:10:26.635Z,16.4
2019-04-07T16:11:13.628Z,16.4
2019-04-07T16:12:11.952Z,16.4
2019-04-07T16:13:15.164Z,16.4
2019-04-07T16:13:42.760Z,16.4
2019-04-07T16:14:32.839Z,16.4
2019-04-07T16:15:28.289Z,16.4
2019-04-07T16:16:11.760Z,16.4
2019-04-07T16:17:18.933Z,16.4
2019-04-07T16:17:58.762Z,16.4
2019-04-07T16:18:51.119Z,16.4
2019-04-07T16:20:31.272Z,16.4
2019-04-07T16:20:58.469Z,16.4
2019-04-07T16:21:53.375Z,16.4
2019-04-07T16:22:37.690Z,16.4
2019-04-07T16:23:35.187Z,16.4
2019-04-07T16:24:17.826Z,16.4
2019-04-07T16:25:11.723Z,16.4
2019-04-07T16:26:04.825Z,16.4
2019-04-07T16:26:53.175Z,16.4
2019-04-07T16:27:48.934Z,16.4
2019-04-07T16:28:31.873Z,16.4
2019-04-07T16:29:26.042Z,16.4
2019-04-07T16:30:09.797Z,16.4
2019-04-07T16:31:03.468Z,16.4
2019-04-07T16:31:46.621Z,16.4
2019-04-07T16:32:42.087Z,16.4
2019-04-07T16:33:32.469Z,16.4
2019-04-07T16:34:24.815Z,16.4
2019-04-07T16:35:08.395Z,16.4
2019-04-07T16:36:10.750Z,16.4
2019-04-07T16:36:53.443Z,16.4
2019-04-07T16:37:44.757Z,16.4
2019-04-07T16:38:34.097Z,16.4
2019-04-07T16:39:23.288Z,16.4
2019-04-07T16:40:18.401Z,16.4
2019-04-07T16:40:58.939Z,16.4
2019-04-07T16:41:54.359Z,16.4
2019-04-07T16:42:39.217Z,16.4
2019-04-07T16:43:45.679Z,16.4
2019-04-07T16:44:24.487Z,16.4
2019-04-07T16:45:19.144Z,16.4
2019-04-07T16:46:03.769Z,16.4
2019-04-07T16:46:48.914Z,16.4
2019-04-07T16:47:49.946Z,16.4
2019-04-07T16:48:27.302Z,16.4
2019-04-07T16:49:33.602Z,16.4
2019-04-07T16:50:09.892Z,16.4
2019-04-07T16:51:12.291Z,16.4
2019-04-07T16:51:50.396Z,16.4
2019-04-07T16:52:49.665Z,16.4
2019-04-07T16:53:28.602Z,16.4
2019-04-07T16:54:26.554Z,16.4
2019-04-07T16:55:19.176Z,16.4
2019-04-07T16:56:09.671Z,16.4
2019-04-07T16:56:59.523Z,16.4
2019-04-07T16:57:48.195Z,16.4
2019-04-07T16:58:40.506Z,16.4
2019-04-07T16:59:25.345Z,16.4
2019-04-07T17:00:16.427Z,16.4
2019-04-07T17:01:02.500Z,16.4
2019-04-07T17:01:50.881Z,16.4
2019-04-07T17:02:40.899Z,16.4
2019-04-07T17:03:29.937Z,16.4
2019-04-07T17:04:21.207Z,16.4
2019-04-07T17:05:13.033Z,16.4
2019-04-07T17:06:12.934Z,16.4
2019-04-07T17:07:25.657Z,16.4
2019-04-07T17:07:49.010Z,16.4
2019-04-07T17:08:43.918Z,16.4
2019-04-07T17:09:30.560Z,16.4
2019-04-07T17:10:20.712Z,16.4
2019-04-07T17:11:11.373Z,16.4
2019-04-07T17:11:58.366Z,16.4
2019-04-07T17:12:48.409Z,16.4
2019-04-07T17:14:05.456Z,16.4
2019-04-07T17:14:26.881Z,16.4